createdAt,value
2016-07-06T00:00:29.197Z,1011.23
2016-07-06T00:01:29.180Z,1011.27
2016-07-06T00:02:29.159Z,1011.22
2016-07-06T00:03:29.146Z,1011.24
2016-07-06T00:04:29.137Z,1011.21
2016-07-06T00:05:29.122Z,1011.21
2016-07-06T00:06:29.112Z,1011.24
2016-07-06T00:07:29.091Z,1011.18
2016-07-06T00:08:29.079Z,1011.27
2016-07-06T00:09:29.068Z,1011.27
2016-07-06T00:10:29.050Z,1011.23
2016-07-06T00:11:29.036Z,1011.26
2016-07-06T00:12:29.024Z,1011.24
2016-07-06T00:13:29.003Z,1011.32
2016-07-06T00:14:28.993Z,1011.3
2016-07-06T00:15:28.981Z,1011.29
2016-07-06T00:16:28.963Z,1011.28
2016-07-06T00:17:28.949Z,1011.25
2016-07-06T00:18:28.929Z,1011.24
2016-07-06T00:19:28.914Z,1011.27
2016-07-06T00:20:28.915Z,1011.25
2016-07-06T00:21:28.887Z,1011.27
2016-07-06T00:22:28.879Z,1011.26
2016-07-06T00:23:28.869Z,1011.26
2016-07-06T00:24:28.846Z,1011.24
2016-07-06T00:25:28.831Z,1011.24
2016-07-06T00:26:28.824Z,1011.25
2016-07-06T00:27:28.799Z,1011.29
2016-07-06T00:28:28.786Z,1011.25
2016-07-06T00:29:28.782Z,1011.26
2016-07-06T00:30:28.764Z,1011.33
2016-07-06T00:31:28.759Z,1011.34
2016-07-06T00:32:28.735Z,1011.32
2016-07-06T00:33:28.720Z,1011.39
2016-07-06T00:34:28.712Z,1011.39
2016-07-06T00:35:28.688Z,1011.39
2016-07-06T00:36:28.677Z,1011.38
2016-07-06T00:37:28.655Z,1011.38
2016-07-06T00:38:28.646Z,1011.39
2016-07-06T00:39:28.635Z,1011.38
2016-07-06T00:40:28.619Z,1011.44
2016-07-06T00:41:28.608Z,1011.45
2016-07-06T00:42:28.592Z,1011.46
2016-07-06T00:43:28.569Z,1011.44
2016-07-06T00:44:28.565Z,1011.49
2016-07-06T00:45:28.547Z,1011.39
2016-07-06T00:46:28.530Z,1011.37
2016-07-06T00:47:28.521Z,1011.37
2016-07-06T00:48:28.504Z,1011.34
2016-07-06T00:49:28.487Z,1011.34
2016-07-06T00:50:28.474Z,1011.36
2016-07-06T00:51:28.457Z,1011.37
2016-07-06T00:52:28.439Z,1011.34
2016-07-06T00:53:28.430Z,1011.32
2016-07-06T00:54:28.411Z,1011.31
2016-07-06T00:55:28.400Z,1011.31
2016-07-06T00:56:28.387Z,1011.26
2016-07-06T00:57:28.374Z,1011.23
2016-07-06T00:58:28.357Z,1011.26
2016-07-06T00:59:28.347Z,1011.22
2016-07-06T01:00:28.329Z,1011.23
2016-07-06T01:01:28.315Z,1011.24
2016-07-06T01:02:28.303Z,1011.26
2016-07-06T01:03:28.286Z,1011.27
2016-07-06T01:04:28.271Z,1011.22
2016-07-06T01:05:28.261Z,1011.22
2016-07-06T01:06:28.243Z,1011.18
2016-07-06T01:07:28.228Z,1011.18
2016-07-06T01:08:28.214Z,1011.17
2016-07-06T01:09:28.256Z,1011.18
2016-07-06T01:10:28.183Z,1011.16
2016-07-06T01:11:28.231Z,1011.2
2016-07-06T01:12:28.157Z,1011.19
2016-07-06T01:13:28.140Z,1011.18
2016-07-06T01:14:28.131Z,1011.19
2016-07-06T01:15:28.109Z,1011.16
2016-07-06T01:16:28.092Z,1011.17
2016-07-06T01:17:28.080Z,1011.17
2016-07-06T01:18:28.065Z,1011.14
2016-07-06T01:19:28.053Z,1011.21
2016-07-06T01:20:28.044Z,1011.2
2016-07-06T01:21:28.026Z,1011.23
2016-07-06T01:22:28.011Z,1011.24
2016-07-06T01:23:28.000Z,1011.21
2016-07-06T01:24:27.978Z,1011.24
2016-07-06T01:25:27.962Z,1011.16
2016-07-06T01:26:27.954Z,1011.15
2016-07-06T01:27:27.934Z,1011.11
2016-07-06T01:28:27.919Z,1011.06
2016-07-06T01:29:28.060Z,1011.04
2016-07-06T01:30:27.896Z,1011.03
2016-07-06T01:31:27.875Z,1011.06
2016-07-06T01:32:27.871Z,1011.07
2016-07-06T01:33:27.848Z,1011.05
2016-07-06T01:34:27.838Z,1011.04
2016-07-06T01:35:27.824Z,1011
2016-07-06T01:36:27.810Z,1010.96
2016-07-06T01:37:27.792Z,1010.95
2016-07-06T01:38:27.784Z,1010.94
2016-07-06T01:39:27.766Z,1010.93
2016-07-06T01:40:27.751Z,1010.88
2016-07-06T01:41:27.740Z,1010.87
2016-07-06T01:42:27.721Z,1010.9
2016-07-06T01:43:27.701Z,1010.89
2016-07-06T01:44:27.694Z,1010.87
2016-07-06T01:45:27.680Z,1010.86
2016-07-06T01:46:27.664Z,1010.9
2016-07-06T01:47:27.650Z,1010.94
2016-07-06T01:48:27.635Z,1010.9
2016-07-06T01:49:27.619Z,1010.95
2016-07-06T01:50:27.602Z,1010.95
2016-07-06T01:51:27.593Z,1010.96
2016-07-06T01:52:27.575Z,1010.98
2016-07-06T01:53:27.563Z,1011.12
2016-07-06T01:54:27.548Z,1011.07
2016-07-06T01:55:27.532Z,1011.1
2016-07-06T01:56:27.522Z,1011.09
2016-07-06T01:57:27.502Z,1011.12
2016-07-06T01:58:27.489Z,1011.14
2016-07-06T01:59:27.482Z,1011.12
2016-07-06T02:00:27.464Z,1011.14
2016-07-06T02:01:27.446Z,1011.11
2016-07-06T02:02:27.438Z,1011.1
2016-07-06T02:03:27.418Z,1011.08
2016-07-06T02:04:27.403Z,1011.11
2016-07-06T02:05:27.394Z,1011.1
2016-07-06T02:06:27.376Z,1011.12
2016-07-06T02:07:27.359Z,1011.06
2016-07-06T02:08:27.347Z,1011.01
2016-07-06T02:09:27.325Z,1010.99
2016-07-06T02:10:27.315Z,1011.05
2016-07-06T02:11:27.304Z,1010.99
2016-07-06T02:12:27.288Z,1011.05
2016-07-06T02:13:27.273Z,1011.01
2016-07-06T02:14:27.258Z,1011.02
2016-07-06T02:15:27.247Z,1011.05
2016-07-06T02:16:27.229Z,1010.98
2016-07-06T02:17:27.218Z,1010.99
2016-07-06T02:18:27.203Z,1011.01
2016-07-06T02:19:27.185Z,1011.01
2016-07-06T02:20:27.171Z,1010.93
2016-07-06T02:21:27.161Z,1010.92
2016-07-06T02:22:27.143Z,1010.91
2016-07-06T02:23:27.127Z,1010.91
2016-07-06T02:24:27.117Z,1010.92
2016-07-06T02:25:27.100Z,1010.9
2016-07-06T02:26:27.083Z,1010.96
2016-07-06T02:27:27.073Z,1010.92
2016-07-06T02:28:27.055Z,1010.88
2016-07-06T02:29:27.039Z,1010.88
2016-07-06T02:30:27.034Z,1010.89
2016-07-06T02:31:27.007Z,1010.89
2016-07-06T02:32:26.996Z,1010.87
2016-07-06T02:33:26.983Z,1010.87
2016-07-06T02:34:26.969Z,1010.87
2016-07-06T02:35:26.953Z,1010.89
2016-07-06T02:36:26.943Z,1010.91
2016-07-06T02:37:26.921Z,1010.91
2016-07-06T02:38:26.908Z,1010.89
2016-07-06T02:39:26.900Z,1010.86
2016-07-06T02:40:26.881Z,1010.91
2016-07-06T02:41:26.866Z,1010.9
2016-07-06T02:42:26.856Z,1010.91
2016-07-06T02:43:26.838Z,1010.93
2016-07-06T02:44:26.821Z,1010.95
2016-07-06T02:45:26.808Z,1010.91
2016-07-06T02:46:26.794Z,1010.96
2016-07-06T02:47:26.783Z,1010.96
2016-07-06T02:48:26.769Z,1010.99
2016-07-06T02:49:26.742Z,1010.96
2016-07-06T02:50:26.729Z,1011.02
2016-07-06T02:51:26.716Z,1011.04
2016-07-06T02:52:26.704Z,1011.03
2016-07-06T02:53:26.689Z,1011.08
2016-07-06T02:54:26.675Z,1011.13
2016-07-06T02:55:26.661Z,1011.07
2016-07-06T02:56:26.646Z,1011.02
2016-07-06T02:57:26.630Z,1011.04
2016-07-06T02:58:26.621Z,1011.06
2016-07-06T02:59:26.603Z,1011.08
2016-07-06T03:00:26.588Z,1011.07
2016-07-06T03:01:26.573Z,1011.03
2016-07-06T03:02:26.559Z,1011.05
2016-07-06T03:03:26.542Z,1011.03
2016-07-06T03:04:26.534Z,1011.05
2016-07-06T03:05:26.516Z,1011.05
2016-07-06T03:06:26.499Z,1011.06
2016-07-06T03:07:26.492Z,1011.06
2016-07-06T03:08:26.469Z,1011.11
2016-07-06T03:09:26.454Z,1011.12
2016-07-06T03:10:26.448Z,1011.11
2016-07-06T03:11:26.429Z,1011.17
2016-07-06T03:12:26.507Z,1011.15
2016-07-06T03:13:26.398Z,1011.19
2016-07-06T03:14:26.382Z,1011.15
2016-07-06T03:15:26.367Z,1011.17
2016-07-06T03:16:26.350Z,1011.17
2016-07-06T03:17:26.339Z,1011.18
2016-07-06T03:18:26.321Z,1011.19
2016-07-06T03:19:26.306Z,1011.18
2016-07-06T03:20:26.298Z,1011.2
2016-07-06T03:21:26.280Z,1011.18
2016-07-06T03:22:26.262Z,1011.2
2016-07-06T03:23:26.252Z,1011.23
2016-07-06T03:24:26.234Z,1011.21
2016-07-06T03:25:26.223Z,1011.22
2016-07-06T03:26:26.213Z,1011.21
2016-07-06T03:27:26.195Z,1011.16
2016-07-06T03:28:26.178Z,1011.13
2016-07-06T03:29:26.169Z,1011.11
2016-07-06T03:30:26.152Z,1011.06
2016-07-06T03:31:26.134Z,1011.01
2016-07-06T03:32:26.120Z,1010.99
2016-07-06T03:33:26.108Z,1010.99
2016-07-06T03:34:26.091Z,1010.96
2016-07-06T03:35:26.075Z,1010.95
2016-07-06T03:36:26.065Z,1010.94
2016-07-06T03:37:26.047Z,1010.96
2016-07-06T03:38:26.033Z,1010.91
2016-07-06T03:39:26.017Z,1010.94
2016-07-06T03:40:26.005Z,1010.92
2016-07-06T03:41:25.989Z,1010.89
2016-07-06T03:42:25.979Z,1010.87
2016-07-06T03:43:25.961Z,1010.89
2016-07-06T03:44:25.939Z,1010.93
2016-07-06T03:45:25.928Z,1010.9
2016-07-06T03:46:25.919Z,1010.95
2016-07-06T03:47:25.900Z,1010.92
2016-07-06T03:48:25.880Z,1010.93
2016-07-06T03:49:25.870Z,1010.93
2016-07-06T03:50:25.855Z,1010.92
2016-07-06T03:51:25.838Z,1010.92
2016-07-06T03:52:25.831Z,1010.88
2016-07-06T03:53:25.812Z,1010.89
2016-07-06T03:54:25.798Z,1010.87
2016-07-06T03:55:25.787Z,1010.86
2016-07-06T03:56:25.767Z,1010.87
2016-07-06T03:57:25.753Z,1010.86
2016-07-06T03:58:25.742Z,1010.87
2016-07-06T03:59:25.726Z,1010.9
2016-07-06T04:00:25.707Z,1010.86
2016-07-06T04:01:25.691Z,1010.85
2016-07-06T04:02:25.681Z,1010.85
2016-07-06T04:03:25.661Z,1010.85
2016-07-06T04:04:25.650Z,1010.81
2016-07-06T04:05:25.636Z,1010.82
2016-07-06T04:06:25.621Z,1010.8
2016-07-06T04:07:25.600Z,1010.83
2016-07-06T04:08:25.592Z,1010.83
2016-07-06T04:09:25.576Z,1010.86
2016-07-06T04:10:25.561Z,1010.88
2016-07-06T04:11:25.546Z,1010.85
2016-07-06T04:12:25.531Z,1010.88
2016-07-06T04:13:25.519Z,1010.94
2016-07-06T04:14:25.498Z,1010.93
2016-07-06T04:15:25.491Z,1010.94
2016-07-06T04:16:25.472Z,1011
2016-07-06T04:17:25.454Z,1011.05
2016-07-06T04:18:25.447Z,1011.1
2016-07-06T04:19:25.429Z,1011.04
2016-07-06T04:20:25.411Z,1011.06
2016-07-06T04:21:25.403Z,1011.07
2016-07-06T04:22:25.384Z,1011.09
2016-07-06T04:23:25.368Z,1011.08
2016-07-06T04:24:25.356Z,1011.09
2016-07-06T04:25:25.340Z,1011.02
2016-07-06T04:26:25.323Z,1010.99
2016-07-06T04:27:25.311Z,1011
2016-07-06T04:28:25.295Z,1010.98
2016-07-06T04:29:25.277Z,1011.02
2016-07-06T04:30:25.262Z,1011.04
2016-07-06T04:31:25.254Z,1011.04
2016-07-06T04:32:25.233Z,1011.02
2016-07-06T04:33:25.221Z,1011.05
2016-07-06T04:34:25.208Z,1011.01
2016-07-06T04:35:25.192Z,1011.02
2016-07-06T04:36:25.188Z,1011.01
2016-07-06T04:37:25.167Z,1010.98
2016-07-06T04:38:25.145Z,1010.98
2016-07-06T04:39:25.141Z,1010.99
2016-07-06T04:40:25.113Z,1010.99
2016-07-06T04:41:25.102Z,1011.01
2016-07-06T04:42:25.087Z,1010.98
2016-07-06T04:43:25.072Z,1010.99
2016-07-06T04:44:25.062Z,1010.97
2016-07-06T04:45:25.043Z,1010.96
2016-07-06T04:46:25.024Z,1010.94
2016-07-06T04:47:25.018Z,1010.95
2016-07-06T04:48:25.000Z,1010.98
2016-07-06T04:49:24.984Z,1010.98
2016-07-06T04:50:24.971Z,1010.97
2016-07-06T04:51:24.957Z,1010.97
2016-07-06T04:52:24.941Z,1010.97
2016-07-06T04:53:24.918Z,1011.04
2016-07-06T04:54:24.910Z,1011.12
2016-07-06T04:55:24.894Z,1011.1
2016-07-06T04:56:24.879Z,1011.15
2016-07-06T04:57:24.875Z,1011.23
2016-07-06T04:58:24.852Z,1011.25
2016-07-06T04:59:24.834Z,1011.28
2016-07-06T05:00:24.826Z,1011.34
2016-07-06T05:01:24.806Z,1011.35
2016-07-06T05:02:24.791Z,1011.36
2016-07-06T05:03:24.775Z,1011.34
2016-07-06T05:04:24.761Z,1011.32
2016-07-06T05:05:24.747Z,1011.29
2016-07-06T05:06:24.731Z,1011.26
2016-07-06T05:07:24.721Z,1011.25
2016-07-06T05:08:24.701Z,1011.27
2016-07-06T05:09:24.683Z,1011.29
2016-07-06T05:10:24.676Z,1011.29
2016-07-06T05:11:24.659Z,1011.31
2016-07-06T05:12:24.643Z,1011.35
2016-07-06T05:13:24.628Z,1011.36
2016-07-06T05:14:24.613Z,1011.37
2016-07-06T05:15:24.600Z,1011.42
2016-07-06T05:16:24.579Z,1011.39
2016-07-06T05:17:24.574Z,1011.45
2016-07-06T05:18:24.557Z,1011.46
2016-07-06T05:19:24.543Z,1011.5
2016-07-06T05:20:24.533Z,1011.48
2016-07-06T05:21:24.518Z,1011.41
2016-07-06T05:22:24.499Z,1011.4
2016-07-06T05:23:24.490Z,1011.35
2016-07-06T05:24:24.470Z,1011.32
2016-07-06T05:25:24.456Z,1011.28
2016-07-06T05:26:24.446Z,1011.3
2016-07-06T05:27:24.426Z,1011.29
2016-07-06T05:28:24.413Z,1011.24
2016-07-06T05:29:24.396Z,1011.3
2016-07-06T05:30:24.384Z,1011.32
2016-07-06T05:31:24.370Z,1011.34
2016-07-06T05:32:24.353Z,1011.34
2016-07-06T05:33:24.341Z,1011.3
2016-07-06T05:34:24.326Z,1011.31
2016-07-06T05:35:24.313Z,1011.3
2016-07-06T05:36:24.299Z,1011.32
2016-07-06T05:37:24.280Z,1011.33
2016-07-06T05:38:24.266Z,1011.35
2016-07-06T05:39:24.251Z,1011.35
2016-07-06T05:40:24.237Z,1011.33
2016-07-06T05:41:24.222Z,1011.33
2016-07-06T05:42:24.207Z,1011.35
2016-07-06T05:43:24.198Z,1011.32
2016-07-06T05:44:24.178Z,1011.33
2016-07-06T05:45:24.163Z,1011.36
2016-07-06T05:46:24.154Z,1011.32
2016-07-06T05:47:24.134Z,1011.37
2016-07-06T05:48:24.115Z,1011.37
2016-07-06T05:49:24.114Z,1011.33
2016-07-06T05:50:24.091Z,1011.36
2016-07-06T05:51:24.075Z,1011.34
2016-07-06T05:52:24.067Z,1011.38
2016-07-06T05:53:24.046Z,1011.33
2016-07-06T05:54:24.032Z,1011.4
2016-07-06T05:55:24.020Z,1011.42
2016-07-06T05:56:24.001Z,1011.4
2016-07-06T05:57:23.987Z,1011.45
2016-07-06T05:58:23.973Z,1011.44
2016-07-06T05:59:23.962Z,1011.46
2016-07-06T06:00:23.954Z,1011.46
2016-07-06T06:01:23.928Z,1011.43
2016-07-06T06:02:23.919Z,1011.49
2016-07-06T06:03:23.902Z,1011.52
2016-07-06T06:04:23.884Z,1011.55
2016-07-06T06:05:23.875Z,1011.6
2016-07-06T06:06:23.858Z,1011.55
2016-07-06T06:07:23.840Z,1011.55
2016-07-06T06:08:23.831Z,1011.46
2016-07-06T06:09:23.811Z,1011.52
2016-07-06T06:10:23.796Z,1011.52
2016-07-06T06:11:23.782Z,1011.55
2016-07-06T06:12:23.766Z,1011.58
2016-07-06T06:13:23.753Z,1011.5
2016-07-06T06:14:23.738Z,1011.51
2016-07-06T06:15:23.727Z,1011.47
2016-07-06T06:16:23.708Z,1011.46
2016-07-06T06:17:23.695Z,1011.43
2016-07-06T06:18:23.683Z,1011.45
2016-07-06T06:19:23.665Z,1011.46
2016-07-06T06:20:23.650Z,1011.44
2016-07-06T06:21:23.641Z,1011.41
2016-07-06T06:22:23.623Z,1011.43
2016-07-06T06:23:23.605Z,1011.44
2016-07-06T06:24:23.597Z,1011.46
2016-07-06T06:25:23.578Z,1011.49
2016-07-06T06:26:23.562Z,1011.49
2016-07-06T06:27:23.553Z,1011.52
2016-07-06T06:28:23.535Z,1011.52
2016-07-06T06:29:23.520Z,1011.52
2016-07-06T06:30:23.514Z,1011.46
2016-07-06T06:31:23.488Z,1011.45
2016-07-06T06:32:23.475Z,1011.39
2016-07-06T06:33:23.460Z,1011.41
2016-07-06T06:34:23.446Z,1011.41
2016-07-06T06:35:23.435Z,1011.46
2016-07-06T06:36:23.416Z,1011.44
2016-07-06T06:37:23.406Z,1011.41
2016-07-06T06:38:23.383Z,1011.41
2016-07-06T06:39:23.373Z,1011.42
2016-07-06T06:40:23.362Z,1011.45
2016-07-06T06:41:23.345Z,1011.48
2016-07-06T06:42:23.329Z,1011.47
2016-07-06T06:43:23.319Z,1011.44
2016-07-06T06:44:23.301Z,1011.44
2016-07-06T06:45:23.286Z,1011.46
2016-07-06T06:46:23.272Z,1011.42
2016-07-06T06:47:23.257Z,1011.44
2016-07-06T06:48:23.237Z,1011.43
2016-07-06T06:49:23.232Z,1011.45
2016-07-06T06:50:23.215Z,1011.44
2016-07-06T06:51:23.200Z,1011.48
2016-07-06T06:52:23.185Z,1011.54
2016-07-06T06:53:23.170Z,1011.57
2016-07-06T06:54:23.156Z,1011.54
2016-07-06T06:55:23.146Z,1011.55
2016-07-06T06:56:23.127Z,1011.59
2016-07-06T06:57:23.108Z,1011.54
2016-07-06T06:58:23.099Z,1011.55
2016-07-06T06:59:23.088Z,1011.54
2016-07-06T07:00:23.064Z,1011.56
2016-07-06T07:01:23.057Z,1011.58
2016-07-06T07:02:23.037Z,1011.59
2016-07-06T07:03:23.023Z,1011.62
2016-07-06T07:04:23.015Z,1011.57
2016-07-06T07:05:22.995Z,1011.61
2016-07-06T07:06:22.977Z,1011.58
2016-07-06T07:07:22.968Z,1011.62
2016-07-06T07:08:22.955Z,1011.57
2016-07-06T07:09:22.946Z,1011.58
2016-07-06T07:10:22.925Z,1011.56
2016-07-06T07:11:22.907Z,1011.55
2016-07-06T07:12:22.898Z,1011.52
2016-07-06T07:13:22.884Z,1011.54
2016-07-06T07:14:22.863Z,1011.53
2016-07-06T07:15:22.857Z,1011.56
2016-07-06T07:16:22.842Z,1011.51
2016-07-06T07:17:22.823Z,1011.54
2016-07-06T07:18:22.817Z,1011.54
2016-07-06T07:19:22.799Z,1011.53
2016-07-06T07:20:22.784Z,1011.54
2016-07-06T07:21:22.773Z,1011.5
2016-07-06T07:22:22.756Z,1011.51
2016-07-06T07:23:22.739Z,1011.51
2016-07-06T07:24:22.729Z,1011.56
2016-07-06T07:25:22.713Z,1011.56
2016-07-06T07:26:22.699Z,1011.58
2016-07-06T07:27:22.681Z,1011.58
2016-07-06T07:28:22.668Z,1011.6
2016-07-06T07:29:22.660Z,1011.63
2016-07-06T07:30:22.643Z,1011.63
2016-07-06T07:31:22.633Z,1011.69
2016-07-06T07:32:22.617Z,1011.69
2016-07-06T07:33:22.600Z,1011.68
2016-07-06T07:34:22.589Z,1011.72
2016-07-06T07:35:22.570Z,1011.75
2016-07-06T07:36:22.556Z,1011.76
2016-07-06T07:37:22.547Z,1011.77
2016-07-06T07:38:22.530Z,1011.72
2016-07-06T07:39:22.519Z,1011.73
2016-07-06T07:40:22.501Z,1011.72
2016-07-06T07:41:22.487Z,1011.72
2016-07-06T07:42:22.474Z,1011.72
2016-07-06T07:43:22.460Z,1011.73
2016-07-06T07:44:22.445Z,1011.78
2016-07-06T07:45:22.438Z,1011.75
2016-07-06T07:46:22.415Z,1011.8
2016-07-06T07:47:22.404Z,1011.83
2016-07-06T07:48:22.393Z,1011.82
2016-07-06T07:49:22.376Z,1011.81
2016-07-06T07:50:22.362Z,1011.81
2016-07-06T07:51:22.350Z,1011.87
2016-07-06T07:52:22.329Z,1011.92
2016-07-06T07:53:22.319Z,1011.9
2016-07-06T07:54:22.314Z,1011.94
2016-07-06T07:55:22.290Z,1011.99
2016-07-06T07:56:22.280Z,1012.06
2016-07-06T07:57:22.264Z,1012.08
2016-07-06T07:58:22.255Z,1012.12
2016-07-06T07:59:22.238Z,1012.16
2016-07-06T08:00:22.224Z,1012.22
2016-07-06T08:01:22.213Z,1012.19
2016-07-06T08:02:22.205Z,1012.24
2016-07-06T08:03:22.187Z,1012.29
2016-07-06T08:04:22.169Z,1012.3
2016-07-06T08:05:22.160Z,1012.3
2016-07-06T08:06:22.142Z,1012.33
2016-07-06T08:07:22.136Z,1012.35
2016-07-06T08:08:22.121Z,1012.41
2016-07-06T08:09:22.108Z,1012.39
2016-07-06T08:10:22.100Z,1012.37
2016-07-06T08:11:22.075Z,1012.37
2016-07-06T08:12:22.065Z,1012.36
2016-07-06T08:13:22.051Z,1012.39
2016-07-06T08:14:22.032Z,1012.4
2016-07-06T08:15:22.022Z,1012.39
2016-07-06T08:16:22.001Z,1012.41
2016-07-06T08:17:21.988Z,1012.44
2016-07-06T08:18:21.976Z,1012.48
2016-07-06T08:19:21.962Z,1012.45
2016-07-06T08:20:21.947Z,1012.52
2016-07-06T08:21:21.931Z,1012.54
2016-07-06T08:22:21.924Z,1012.52
2016-07-06T08:23:22.057Z,1012.55
2016-07-06T08:24:21.898Z,1012.55
2016-07-06T08:25:21.878Z,1012.52
2016-07-06T08:26:21.864Z,1012.54
2016-07-06T08:27:21.857Z,1012.48
2016-07-06T08:28:21.838Z,1012.55
2016-07-06T08:29:21.832Z,1012.58
2016-07-06T08:30:21.816Z,1012.55
2016-07-06T08:31:21.806Z,1012.57
2016-07-06T08:32:21.788Z,1012.55
2016-07-06T08:33:21.774Z,1012.53
2016-07-06T08:34:21.759Z,1012.52
2016-07-06T08:35:21.748Z,1012.5
2016-07-06T08:36:21.737Z,1012.52
2016-07-06T08:37:21.719Z,1012.49
2016-07-06T08:38:21.708Z,1012.46
2016-07-06T08:39:21.694Z,1012.44
2016-07-06T08:40:21.842Z,1012.49
2016-07-06T08:41:21.668Z,1012.49
2016-07-06T08:42:21.653Z,1012.47
2016-07-06T08:43:21.640Z,1012.47
2016-07-06T08:44:21.623Z,1012.45
2016-07-06T08:45:21.773Z,1012.44
2016-07-06T08:46:21.597Z,1012.49
2016-07-06T08:47:21.585Z,1012.48
2016-07-06T08:48:21.723Z,1012.51
2016-07-06T08:49:21.557Z,1012.46
2016-07-06T08:50:21.549Z,1012.46
2016-07-06T08:51:21.530Z,1012.48
2016-07-06T08:52:21.564Z,1012.48
2016-07-06T08:53:21.504Z,1012.53
2016-07-06T08:54:21.491Z,1012.48
2016-07-06T08:55:21.479Z,1012.47
2016-07-06T08:56:21.618Z,1012.49
2016-07-06T08:57:21.451Z,1012.45
2016-07-06T08:58:21.590Z,1012.43
2016-07-06T08:59:21.429Z,1012.43
2016-07-06T09:00:21.411Z,1012.44
2016-07-06T09:01:21.409Z,1012.46
2016-07-06T09:02:21.385Z,1012.4
2016-07-06T09:03:21.374Z,1012.42
2016-07-06T09:04:21.358Z,1012.36
2016-07-06T09:05:21.345Z,1012.38
2016-07-06T09:06:21.333Z,1012.37
2016-07-06T09:07:21.320Z,1012.35
2016-07-06T09:08:21.309Z,1012.41
2016-07-06T09:09:21.293Z,1012.42
2016-07-06T09:10:21.434Z,1012.41
2016-07-06T09:11:21.267Z,1012.45
2016-07-06T09:12:21.408Z,1012.46
2016-07-06T09:13:21.266Z,1012.47
2016-07-06T09:14:21.231Z,1012.48
2016-07-06T09:15:21.215Z,1012.54
2016-07-06T09:16:21.206Z,1012.54
2016-07-06T09:17:21.265Z,1012.54
2016-07-06T09:18:21.180Z,1012.55
2016-07-06T09:19:21.163Z,1012.53
2016-07-06T09:20:21.154Z,1012.53
2016-07-06T09:21:21.134Z,1012.59
2016-07-06T09:22:21.130Z,1012.55
2016-07-06T09:23:21.111Z,1012.54
2016-07-06T09:24:21.097Z,1012.54
2016-07-06T09:25:21.085Z,1012.53
2016-07-06T09:26:21.078Z,1012.58
2016-07-06T09:27:21.060Z,1012.63
2016-07-06T09:28:21.051Z,1012.61
2016-07-06T09:29:21.034Z,1012.6
2016-07-06T09:30:21.027Z,1012.63
2016-07-06T09:31:21.009Z,1012.67
2016-07-06T09:32:21.002Z,1012.67
2016-07-06T09:33:20.984Z,1012.67
2016-07-06T09:34:20.975Z,1012.69
2016-07-06T09:35:20.959Z,1012.66
2016-07-06T09:36:20.950Z,1012.68
2016-07-06T09:37:20.932Z,1012.68
2016-07-06T09:38:20.921Z,1012.68
2016-07-06T09:39:20.911Z,1012.67
2016-07-06T09:40:20.895Z,1012.69
2016-07-06T09:41:20.877Z,1012.71
2016-07-06T09:42:20.873Z,1012.66
2016-07-06T09:43:20.857Z,1012.63
2016-07-06T09:44:20.844Z,1012.67
2016-07-06T09:45:20.832Z,1012.64
2016-07-06T09:46:20.817Z,1012.63
2016-07-06T09:47:20.803Z,1012.6
2016-07-06T09:48:20.796Z,1012.57
2016-07-06T09:49:20.784Z,1012.51
2016-07-06T09:50:20.768Z,1012.54
2016-07-06T09:51:20.762Z,1012.48
2016-07-06T09:52:20.744Z,1012.52
2016-07-06T09:53:20.734Z,1012.46
2016-07-06T09:54:20.719Z,1012.55
2016-07-06T09:55:20.706Z,1012.58
2016-07-06T09:56:20.691Z,1012.59
2016-07-06T09:57:20.685Z,1012.61
2016-07-06T09:58:20.667Z,1012.56
2016-07-06T09:59:20.660Z,1012.58
2016-07-06T10:00:20.645Z,1012.63
2016-07-06T10:01:20.630Z,1012.65
2016-07-06T10:02:20.624Z,1012.64
2016-07-06T10:03:20.756Z,1012.66
2016-07-06T10:04:20.593Z,1012.62
2016-07-06T10:05:20.584Z,1012.64
2016-07-06T10:06:20.575Z,1012.6
2016-07-06T10:07:20.560Z,1012.6
2016-07-06T10:08:20.551Z,1012.57
2016-07-06T10:09:20.543Z,1012.6
2016-07-06T10:10:20.525Z,1012.59
2016-07-06T10:11:20.513Z,1012.58
2016-07-06T10:12:20.582Z,1012.58
2016-07-06T10:13:20.487Z,1012.57
2016-07-06T10:14:20.475Z,1012.54
2016-07-06T10:15:20.471Z,1012.56
2016-07-06T10:16:20.458Z,1012.58
2016-07-06T10:17:20.436Z,1012.6
2016-07-06T10:18:20.429Z,1012.55
2016-07-06T10:19:20.417Z,1012.58
2016-07-06T10:20:20.406Z,1012.57
2016-07-06T10:21:20.390Z,1012.58
2016-07-06T10:22:20.382Z,1012.62
2016-07-06T10:23:20.372Z,1012.61
2016-07-06T10:24:20.355Z,1012.65
2016-07-06T10:25:20.348Z,1012.66
2016-07-06T10:26:20.330Z,1012.69
2016-07-06T10:27:20.320Z,1012.71
2016-07-06T10:28:20.308Z,1012.77
2016-07-06T10:29:20.297Z,1012.76
2016-07-06T10:30:20.284Z,1012.8
2016-07-06T10:31:20.273Z,1012.79
2016-07-06T10:32:20.263Z,1012.78
2016-07-06T10:33:20.246Z,1012.79
2016-07-06T10:34:20.238Z,1012.82
2016-07-06T10:35:20.223Z,1012.76
2016-07-06T10:36:20.218Z,1012.76
2016-07-06T10:37:20.205Z,1012.71
2016-07-06T10:38:20.188Z,1012.73
2016-07-06T10:39:20.185Z,1012.71
2016-07-06T10:40:20.162Z,1012.67
2016-07-06T10:41:20.157Z,1012.66
2016-07-06T10:42:20.155Z,1012.68
2016-07-06T10:43:20.128Z,1012.65
2016-07-06T10:44:20.118Z,1012.68
2016-07-06T10:45:20.103Z,1012.65
2016-07-06T10:46:20.096Z,1012.7
2016-07-06T10:47:20.080Z,1012.72
2016-07-06T10:48:20.141Z,1012.74
2016-07-06T10:49:20.055Z,1012.73
2016-07-06T10:50:20.044Z,1012.77
2016-07-06T10:51:20.036Z,1012.81
2016-07-06T10:52:20.021Z,1012.76
2016-07-06T10:53:20.011Z,1012.75
2016-07-06T10:54:20.000Z,1012.75
2016-07-06T10:55:19.986Z,1012.72
2016-07-06T10:56:19.979Z,1012.74
2016-07-06T10:57:19.962Z,1012.72
2016-07-06T10:58:20.103Z,1012.68
2016-07-06T10:59:19.985Z,1012.73
2016-07-06T11:00:19.927Z,1012.71
2016-07-06T11:01:19.923Z,1012.68
2016-07-06T11:02:19.909Z,1012.68
2016-07-06T11:03:19.894Z,1012.64
2016-07-06T11:04:19.885Z,1012.67
2016-07-06T11:05:19.877Z,1012.65
2016-07-06T11:06:19.861Z,1012.65
2016-07-06T11:07:19.851Z,1012.64
2016-07-06T11:08:19.838Z,1012.68
2016-07-06T11:09:19.827Z,1012.67
2016-07-06T11:10:19.818Z,1012.69
2016-07-06T11:11:19.813Z,1012.71
2016-07-06T11:12:19.793Z,1012.67
2016-07-06T11:13:19.784Z,1012.65
2016-07-06T11:14:19.779Z,1012.69
2016-07-06T11:15:19.761Z,1012.67
2016-07-06T11:16:19.752Z,1012.66
2016-07-06T11:17:19.743Z,1012.69
2016-07-06T11:18:19.729Z,1012.69
2016-07-06T11:19:19.717Z,1012.72
2016-07-06T11:20:19.710Z,1012.67
2016-07-06T11:21:19.703Z,1012.68
2016-07-06T11:22:19.685Z,1012.68
2016-07-06T11:23:19.678Z,1012.65
2016-07-06T11:24:19.668Z,1012.62
2016-07-06T11:25:19.654Z,1012.63
2016-07-06T11:26:19.643Z,1012.64
2016-07-06T11:27:19.636Z,1012.63
2016-07-06T11:28:19.629Z,1012.63
2016-07-06T11:29:19.615Z,1012.61
2016-07-06T11:30:19.603Z,1012.66
2016-07-06T11:31:19.591Z,1012.64
2016-07-06T11:32:19.582Z,1012.65
2016-07-06T11:33:19.572Z,1012.71
2016-07-06T11:34:19.556Z,1012.74
2016-07-06T11:35:19.548Z,1012.82
2016-07-06T11:36:19.538Z,1012.86
2016-07-06T11:37:19.530Z,1012.82
2016-07-06T11:38:19.526Z,1012.83
2016-07-06T11:39:19.520Z,1012.82
2016-07-06T11:40:19.503Z,1012.8
2016-07-06T11:41:19.501Z,1012.78
2016-07-06T11:42:19.493Z,1012.73
2016-07-06T11:43:19.521Z,1012.75
2016-07-06T11:44:19.484Z,1012.72
2016-07-06T11:45:19.475Z,1012.74
2016-07-06T11:46:19.466Z,1012.65
2016-07-06T11:47:19.455Z,1012.67
2016-07-06T11:48:19.447Z,1012.7
2016-07-06T11:49:19.439Z,1012.58
2016-07-06T11:50:19.434Z,1012.6
2016-07-06T11:51:19.426Z,1012.6
2016-07-06T11:52:19.419Z,1012.6
2016-07-06T11:53:19.418Z,1012.61
2016-07-06T11:54:19.408Z,1012.62
2016-07-06T11:55:19.403Z,1012.61
2016-07-06T11:56:19.395Z,1012.64
2016-07-06T11:57:19.389Z,1012.68
2016-07-06T11:58:19.387Z,1012.76
2016-07-06T11:59:19.379Z,1012.8
2016-07-06T12:00:19.372Z,1012.74
2016-07-06T12:01:19.369Z,1012.77
2016-07-06T12:02:19.365Z,1012.76
2016-07-06T12:03:19.361Z,1012.76
2016-07-06T12:04:19.358Z,1012.74
2016-07-06T12:05:19.356Z,1012.77
2016-07-06T12:06:19.353Z,1012.82
2016-07-06T12:07:19.341Z,1012.85